sensor_id;sensor_type;location;lat;lon;timestamp;pressure;altitude;pressure_sealevel;temperature
49557;BMP280;35462;45.048;7.666;2023-04-29T00:12:22;98800.72;;;20.78
49557;BMP280;35462;45.048;7.666;2023-04-29T00:27:27;98772.16;;;20.60
49557;BMP280;35462;45.048;7.666;2023-04-29T00:42:31;98744.91;;;20.53
49557;BMP280;35462;45.048;7.666;2023-04-29T00:57:36;98730.78;;;20.38
49557;BMP280;35462;45.048;7.666;2023-04-29T01:12:45;98744.91;;;20.19
49557;BMP280;35462;45.048;7.666;2023-04-29T01:43:01;98717.63;;;19.91
49557;BMP280;35462;45.048;7.666;2023-04-29T01:58:10;98716.53;;;19.83
49557;BMP280;35462;45.048;7.666;2023-04-29T02:13:25;98708.41;;;19.78
49557;BMP280;35462;45.048;7.666;2023-04-29T02:28:29;98721.75;;;19.73
49557;BMP280;35462;45.048;7.666;2023-04-29T02:43:34;98715.78;;;19.69
49557;BMP280;35462;45.048;7.666;2023-04-29T02:58:38;98690.28;;;19.59
49557;BMP280;35462;45.048;7.666;2023-04-29T03:13:42;98691.38;;;19.52
49557;BMP280;35462;45.048;7.666;2023-04-29T03:28:46;98698.06;;;19.42
49557;BMP280;35462;45.048;7.666;2023-04-29T03:43:50;98670.34;;;19.36
49557;BMP280;35462;45.048;7.666;2023-04-29T03:58:54;98659.16;;;19.38
49557;BMP280;35462;45.048;7.666;2023-04-29T04:14:01;98659.31;;;19.34
49557;BMP280;35462;45.048;7.666;2023-04-29T04:29:06;98677.84;;;19.32
49557;BMP280;35462;45.048;7.666;2023-04-29T04:44:17;98688.59;;;19.32
49557;BMP280;35462;45.048;7.666;2023-04-29T04:59:24;98700.63;;;19.22
49557;BMP280;35462;45.048;7.666;2023-04-29T05:14:28;98720.91;;;19.23
49557;BMP280;35462;45.048;7.666;2023-04-29T05:29:32;98736.47;;;19.19
49557;BMP280;35462;45.048;7.666;2023-04-29T05:44:39;98779.69;;;19.21
49557;BMP280;35462;45.048;7.666;2023-04-29T05:59:43;98808.63;;;19.26
49557;BMP280;35462;45.048;7.666;2023-04-29T06:14:47;98788.63;;;19.27
49557;BMP280;35462;45.048;7.666;2023-04-29T06:29:51;98766.50;;;19.32
49557;BMP280;35462;45.048;7.666;2023-04-29T06:44:55;98762.31;;;19.60
49557;BMP280;35462;45.048;7.666;2023-04-29T07:00:02;98790.75;;;24.94
49557;BMP280;35462;45.048;7.666;2023-04-29T07:15:08;98787.91;;;25.74
49557;BMP280;35462;45.048;7.666;2023-04-29T07:30:12;98803.72;;;24.66
49557;BMP280;35462;45.048;7.666;2023-04-29T07:45:17;98818.13;;;24.85
49557;BMP280;35462;45.048;7.666;2023-04-29T08:00:21;98824.88;;;23.89
49557;BMP280;35462;45.048;7.666;2023-04-29T08:15:26;98820.84;;;24.91
49557;BMP280;35462;45.048;7.666;2023-04-29T08:30:30;98817.22;;;25.52
49557;BMP280;35462;45.048;7.666;2023-04-29T08:45:35;98796.53;;;25.97
49557;BMP280;35462;45.048;7.666;2023-04-29T09:00:41;98791.84;;;26.21
49557;BMP280;35462;45.048;7.666;2023-04-29T09:15:45;98785.09;;;26.27
49557;BMP280;35462;45.048;7.666;2023-04-29T09:30:49;98765.56;;;25.87
49557;BMP280;35462;45.048;7.666;2023-04-29T09:45:54;98751.84;;;25.79
49557;BMP280;35462;45.048;7.666;2023-04-29T10:00:58;98742.72;;;25.53
49557;BMP280;35462;45.048;7.666;2023-04-29T10:16:10;98713.63;;;25.54
49557;BMP280;35462;45.048;7.666;2023-04-29T10:31:16;98677.50;;;25.40
49557;BMP280;35462;45.048;7.666;2023-04-29T10:46:22;98675.97;;;25.68
49557;BMP280;35462;45.048;7.666;2023-04-29T11:16:47;98650.88;;;25.81
49557;BMP280;35462;45.048;7.666;2023-04-29T11:31:58;98618.75;;;26.03
49557;BMP280;35462;45.048;7.666;2023-04-29T11:47:04;98607.41;;;26.23
49557;BMP280;35462;45.048;7.666;2023-04-29T12:02:11;98584.63;;;26.26
49557;BMP280;35462;45.048;7.666;2023-04-29T12:17:16;98577.34;;;26.34
49557;BMP280;35462;45.048;7.666;2023-04-29T12:32:22;98573.22;;;26.14
49557;BMP280;35462;45.048;7.666;2023-04-29T12:47:31;98565.28;;;26.16
49557;BMP280;35462;45.048;7.666;2023-04-29T13:02:38;98566.75;;;25.99
49557;BMP280;35462;45.048;7.666;2023-04-29T13:17:42;98552.31;;;25.91
49557;BMP280;35462;45.048;7.666;2023-04-29T13:32:46;98538.72;;;25.91
49557;BMP280;35462;45.048;7.666;2023-04-29T13:47:50;98531.53;;;25.94
49557;BMP280;35462;45.048;7.666;2023-04-29T14:02:54;98508.34;;;25.93
49557;BMP280;35462;45.048;7.666;2023-04-29T14:17:58;98508.34;;;25.93
49557;BMP280;35462;45.048;7.666;2023-04-29T14:33:02;98509.41;;;25.71
49557;BMP280;35462;45.048;7.666;2023-04-29T14:48:06;98498.56;;;25.71
49557;BMP280;35462;45.048;7.666;2023-04-29T15:03:10;98508.38;;;25.74
49557;BMP280;35462;45.048;7.666;2023-04-29T15:18:15;98506.63;;;25.58
49557;BMP280;35462;45.048;7.666;2023-04-29T15:33:19;98495.78;;;25.58
49557;BMP280;35462;45.048;7.666;2023-04-29T15:48:23;98492.56;;;25.42
49557;BMP280;35462;45.048;7.666;2023-04-29T16:03:27;98499.56;;;25.32
49557;BMP280;35462;45.048;7.666;2023-04-29T16:18:31;98503.69;;;25.20
49557;BMP280;35462;45.048;7.666;2023-04-29T16:33:36;98505.75;;;25.14
49557;BMP280;35462;45.048;7.666;2023-04-29T16:48:40;98498.16;;;25.07
49557;BMP280;35462;45.048;7.666;2023-04-29T17:03:46;98510.66;;;24.92
49557;BMP280;35462;45.048;7.666;2023-04-29T17:18:50;98501.56;;;24.89
49557;BMP280;35462;45.048;7.666;2023-04-29T17:33:54;98497.81;;;24.68
49557;BMP280;35462;45.048;7.666;2023-04-29T17:49:07;98499.38;;;24.58
49557;BMP280;35462;45.048;7.666;2023-04-29T18:04:11;98507.09;;;24.49
49557;BMP280;35462;45.048;7.666;2023-04-29T18:19:15;98500.81;;;24.41
49557;BMP280;35462;45.048;7.666;2023-04-29T18:34:19;98493.72;;;24.33
49557;BMP280;35462;45.048;7.666;2023-04-29T18:49:23;98515.97;;;24.20
49557;BMP280;35462;45.048;7.666;2023-04-29T19:04:27;98527.84;;;24.12
49557;BMP280;35462;45.048;7.666;2023-04-29T19:19:31;98532.78;;;24.08
49557;BMP280;35462;45.048;7.666;2023-04-29T19:34:36;98534.31;;;23.98
49557;BMP280;35462;45.048;7.666;2023-04-29T19:49:40;98542.28;;;23.85
49557;BMP280;35462;45.048;7.666;2023-04-29T20:04:44;98545.31;;;23.65
49557;BMP280;35462;45.048;7.666;2023-04-29T20:19:48;98567.50;;;23.47
49557;BMP280;35462;45.048;7.666;2023-04-29T20:34:53;98578.88;;;23.29
49557;BMP280;35462;45.048;7.666;2023-04-29T20:49:57;98588.22;;;23.17
49557;BMP280;35462;45.048;7.666;2023-04-29T21:05:01;98605.91;;;23.08
49557;BMP280;35462;45.048;7.666;2023-04-29T21:20:06;98615.50;;;22.98
49557;BMP280;35462;45.048;7.666;2023-04-29T21:35:10;98618.94;;;22.93
49557;BMP280;35462;45.048;7.666;2023-04-29T21:50:14;98628.50;;;22.88
49557;BMP280;35462;45.048;7.666;2023-04-29T22:05:18;98625.31;;;22.73
49557;BMP280;35462;45.048;7.666;2023-04-29T22:20:22;98622.88;;;22.75
49557;BMP280;35462;45.048;7.666;2023-04-29T22:35:26;98642.25;;;22.74
49557;BMP280;35462;45.048;7.666;2023-04-29T22:50:30;98644.94;;;22.63
49557;BMP280;35462;45.048;7.666;2023-04-29T23:05:34;98671.91;;;22.52
49557;BMP280;35462;45.048;7.666;2023-04-29T23:20:39;98671.41;;;22.43
49557;BMP280;35462;45.048;7.666;2023-04-29T23:35:47;98655.19;;;22.32
49557;BMP280;35462;45.048;7.666;2023-04-29T23:50:52;98653.44;;;22.23
